Izium, Ukraine
Current Conditions -  °F | °C
As of 12:00 AM on Sunday 26 Oct 2014 (Local Time) from UKHH Reporting Station
Clear Clear  
Wind Chill: 13°   Ceiling: Unl
Heat Index: 21°   Visibility: 6mi
Dew Point: 12°   Wind: 7mph
Humidity: 68%   Direction: 80°E
Pressure: 30.65"   Gusts: NA
Location:  49.18°N, 37.3°E
Report Text: UKHH 252100Z 08003MPS CAVOK M06/M11 Q1038 070///65 NOSIG
Loading
Personal Weather Stations






























Interactive Weather Map
Tropical Storm Tracking
New forecast layout! Learn more

10-Day Weather Forecast

Advertisements
Track Severe Weather on mobile